Alvin, Illinois
Current Conditions -  °F | °C
As of 7:15 AM on Thursday 27 Nov 2014 (Local Time) from KDNV Reporting Station
Haze Haze  
Wind Chill: 14°   Ceiling: 7000
Heat Index: 25°   Visibility: 5mi
Dew Point: 20°   Wind: 12mph
Humidity: 84%   Direction: 300°WNW
Pressure: 30.28"   Gusts: NA
Location:  40.31°N, 87.61°W
Report Text: KDNV 271315Z AUTO 30010KT 5SM HZ SCT022 SCT042 OVC070 M04/M06 A3028 RMK AO2 T10401064
Loading
Personal Weather Stations






























Interactive Weather Map New forecast layout! Learn more

10-Day Weather Forecast

Advertisements
Track Severe Weather on mobile